sensor_id;sensor_type;location;lat;lon;timestamp;P1;durP1;ratioP1;P2;durP2;ratioP2
2404;SDS011;1213;43.206;27.922;2024-02-21T00:01:36;21.20;;;15.60;;
2404;SDS011;1213;43.206;27.922;2024-02-21T00:04:01;19.63;;;14.03;;
2404;SDS011;1213;43.206;27.922;2024-02-21T00:06:27;23.00;;;15.27;;
2404;SDS011;1213;43.206;27.922;2024-02-21T00:08:55;16.77;;;14.60;;
2404;SDS011;1213;43.206;27.922;2024-02-21T00:11:20;23.87;;;15.63;;
2404;SDS011;1213;43.206;27.922;2024-02-21T00:13:46;20.47;;;14.63;;
2404;SDS011;1213;43.206;27.922;2024-02-21T00:16:13;24.03;;;16.00;;
2404;SDS011;1213;43.206;27.922;2024-02-21T00:18:41;22.23;;;15.20;;
2404;SDS011;1213;43.206;27.922;2024-02-21T00:21:07;27.90;;;17.50;;
2404;SDS011;1213;43.206;27.922;2024-02-21T00:23:34;31.10;;;19.87;;
2404;SDS011;1213;43.206;27.922;2024-02-21T00:25:59;34.67;;;22.60;;
2404;SDS011;1213;43.206;27.922;2024-02-21T00:28:25;29.90;;;21.00;;
2404;SDS011;1213;43.206;27.922;2024-02-21T00:30:51;29.60;;;21.30;;
2404;SDS011;1213;43.206;27.922;2024-02-21T00:33:18;31.00;;;20.40;;
2404;SDS011;1213;43.206;27.922;2024-02-21T00:35:45;26.67;;;19.63;;
2404;SDS011;1213;43.206;27.922;2024-02-21T00:38:11;28.10;;;19.80;;
2404;SDS011;1213;43.206;27.922;2024-02-21T00:40:36;28.37;;;19.50;;
2404;SDS011;1213;43.206;27.922;2024-02-21T00:43:02;30.67;;;19.60;;
2404;SDS011;1213;43.206;27.922;2024-02-21T00:45:28;33.63;;;19.30;;
2404;SDS011;1213;43.206;27.922;2024-02-21T00:47:55;32.40;;;21.00;;
2404;SDS011;1213;43.206;27.922;2024-02-21T00:50:21;30.60;;;20.57;;
2404;SDS011;1213;43.206;27.922;2024-02-21T00:52:46;32.57;;;19.03;;
2404;SDS011;1213;43.206;27.922;2024-02-21T00:55:11;27.33;;;19.23;;
2404;SDS011;1213;43.206;27.922;2024-02-21T00:57:39;48.57;;;27.90;;
2404;SDS011;1213;43.206;27.922;2024-02-21T01:00:05;49.70;;;34.40;;
2404;SDS011;1213;43.206;27.922;2024-02-21T01:02:34;51.40;;;36.30;;
2404;SDS011;1213;43.206;27.922;2024-02-21T01:05:00;43.83;;;26.80;;
2404;SDS011;1213;43.206;27.922;2024-02-21T01:07:25;37.60;;;26.67;;
2404;SDS011;1213;43.206;27.922;2024-02-21T01:09:52;51.37;;;31.17;;
2404;SDS011;1213;43.206;27.922;2024-02-21T01:12:17;34.80;;;22.50;;
2404;SDS011;1213;43.206;27.922;2024-02-21T01:14:43;28.67;;;19.40;;
2404;SDS011;1213;43.206;27.922;2024-02-21T01:17:11;28.03;;;17.47;;
2404;SDS011;1213;43.206;27.922;2024-02-21T01:19:36;28.37;;;17.70;;
2404;SDS011;1213;43.206;27.922;2024-02-21T01:22:02;27.10;;;16.80;;
2404;SDS011;1213;43.206;27.922;2024-02-21T01:24:29;26.20;;;17.10;;
2404;SDS011;1213;43.206;27.922;2024-02-21T01:26:54;32.70;;;16.37;;
2404;SDS011;1213;43.206;27.922;2024-02-21T01:29:21;28.40;;;17.80;;
2404;SDS011;1213;43.206;27.922;2024-02-21T01:31:46;24.80;;;16.67;;
2404;SDS011;1213;43.206;27.922;2024-02-21T01:34:12;29.23;;;16.93;;
2404;SDS011;1213;43.206;27.922;2024-02-21T01:36:38;24.00;;;14.60;;
2404;SDS011;1213;43.206;27.922;2024-02-21T01:39:03;28.90;;;17.73;;
2404;SDS011;1213;43.206;27.922;2024-02-21T01:41:32;35.60;;;17.87;;
2404;SDS011;1213;43.206;27.922;2024-02-21T01:43:58;30.13;;;15.70;;
2404;SDS011;1213;43.206;27.922;2024-02-21T01:46:24;27.37;;;17.73;;
2404;SDS011;1213;43.206;27.922;2024-02-21T01:48:54;29.40;;;17.30;;
2404;SDS011;1213;43.206;27.922;2024-02-21T01:51:20;23.33;;;16.40;;
2404;SDS011;1213;43.206;27.922;2024-02-21T01:53:46;36.33;;;17.80;;
2404;SDS011;1213;43.206;27.922;2024-02-21T01:56:12;28.23;;;18.23;;
2404;SDS011;1213;43.206;27.922;2024-02-21T01:58:41;30.57;;;18.57;;
2404;SDS011;1213;43.206;27.922;2024-02-21T02:01:07;28.63;;;17.97;;
2404;SDS011;1213;43.206;27.922;2024-02-21T02:03:35;30.27;;;20.10;;
2404;SDS011;1213;43.206;27.922;2024-02-21T02:06:00;27.83;;;17.80;;
2404;SDS011;1213;43.206;27.922;2024-02-21T02:08:30;25.30;;;16.80;;
2404;SDS011;1213;43.206;27.922;2024-02-21T02:10:57;29.37;;;18.80;;
2404;SDS011;1213;43.206;27.922;2024-02-21T02:13:23;28.90;;;17.07;;
2404;SDS011;1213;43.206;27.922;2024-02-21T02:15:49;35.63;;;19.30;;
2404;SDS011;1213;43.206;27.922;2024-02-21T02:18:15;24.37;;;16.70;;
2404;SDS011;1213;43.206;27.922;2024-02-21T02:20:41;27.30;;;18.43;;
2404;SDS011;1213;43.206;27.922;2024-02-21T02:25:54;34.97;;;20.07;;
2404;SDS011;1213;43.206;27.922;2024-02-21T02:28:20;26.97;;;18.30;;
2404;SDS011;1213;43.206;27.922;2024-02-21T02:30:46;29.50;;;19.03;;
2404;SDS011;1213;43.206;27.922;2024-02-21T02:33:12;28.10;;;18.20;;
2404;SDS011;1213;43.206;27.922;2024-02-21T02:35:42;27.33;;;18.50;;
2404;SDS011;1213;43.206;27.922;2024-02-21T02:38:08;32.07;;;19.67;;
2404;SDS011;1213;43.206;27.922;2024-02-21T02:40:34;29.83;;;17.67;;
2404;SDS011;1213;43.206;27.922;2024-02-21T02:43:00;31.77;;;19.83;;
2404;SDS011;1213;43.206;27.922;2024-02-21T02:45:26;30.20;;;17.53;;
2404;SDS011;1213;43.206;27.922;2024-02-21T02:47:52;31.40;;;19.00;;
2404;SDS011;1213;43.206;27.922;2024-02-21T02:50:21;34.23;;;20.87;;
2404;SDS011;1213;43.206;27.922;2024-02-21T02:52:48;35.77;;;19.40;;
2404;SDS011;1213;43.206;27.922;2024-02-21T02:55:13;36.37;;;19.63;;
2404;SDS011;1213;43.206;27.922;2024-02-21T02:57:39;27.23;;;17.60;;
2404;SDS011;1213;43.206;27.922;2024-02-21T03:00:06;22.20;;;11.77;;
2404;SDS011;1213;43.206;27.922;2024-02-21T03:02:32;32.60;;;15.67;;
2404;SDS011;1213;43.206;27.922;2024-02-21T03:04:58;27.20;;;16.40;;
2404;SDS011;1213;43.206;27.922;2024-02-21T03:07:24;18.50;;;12.20;;
2404;SDS011;1213;43.206;27.922;2024-02-21T03:09:50;27.20;;;14.50;;
2404;SDS011;1213;43.206;27.922;2024-02-21T03:12:15;22.83;;;13.60;;
2404;SDS011;1213;43.206;27.922;2024-02-21T03:14:49;23.13;;;13.10;;
2404;SDS011;1213;43.206;27.922;2024-02-21T03:17:15;25.63;;;14.40;;
2404;SDS011;1213;43.206;27.922;2024-02-21T03:19:40;26.13;;;13.70;;
2404;SDS011;1213;43.206;27.922;2024-02-21T03:22:07;22.63;;;13.50;;
2404;SDS011;1213;43.206;27.922;2024-02-21T03:24:35;16.17;;;11.30;;
2404;SDS011;1213;43.206;27.922;2024-02-21T03:27:01;13.53;;;8.97;;
2404;SDS011;1213;43.206;27.922;2024-02-21T03:29:33;21.00;;;12.23;;
2404;SDS011;1213;43.206;27.922;2024-02-21T03:31:58;21.93;;;13.70;;
2404;SDS011;1213;43.206;27.922;2024-02-21T03:34:24;28.77;;;14.23;;
2404;SDS011;1213;43.206;27.922;2024-02-21T03:36:51;24.03;;;14.63;;
2404;SDS011;1213;43.206;27.922;2024-02-21T03:39:18;27.17;;;13.47;;
2404;SDS011;1213;43.206;27.922;2024-02-21T03:41:46;31.47;;;16.20;;
2404;SDS011;1213;43.206;27.922;2024-02-21T03:44:11;21.40;;;13.83;;
2404;SDS011;1213;43.206;27.922;2024-02-21T03:46:37;27.60;;;15.67;;
2404;SDS011;1213;43.206;27.922;2024-02-21T03:49:02;30.93;;;15.60;;
2404;SDS011;1213;43.206;27.922;2024-02-21T03:51:28;23.53;;;15.50;;
2404;SDS011;1213;43.206;27.922;2024-02-21T03:53:53;44.23;;;15.07;;
2404;SDS011;1213;43.206;27.922;2024-02-21T03:56:19;27.80;;;16.10;;
2404;SDS011;1213;43.206;27.922;2024-02-21T03:58:44;26.57;;;16.47;;
2404;SDS011;1213;43.206;27.922;2024-02-21T04:01:09;25.13;;;16.97;;
2404;SDS011;1213;43.206;27.922;2024-02-21T04:03:36;22.63;;;14.10;;
2404;SDS011;1213;43.206;27.922;2024-02-21T04:06:02;35.50;;;18.97;;
2404;SDS011;1213;43.206;27.922;2024-02-21T04:08:28;30.83;;;17.57;;
2404;SDS011;1213;43.206;27.922;2024-02-21T04:10:53;25.90;;;16.43;;
2404;SDS011;1213;43.206;27.922;2024-02-21T04:13:19;28.43;;;17.63;;
2404;SDS011;1213;43.206;27.922;2024-02-21T04:15:44;31.80;;;18.70;;
2404;SDS011;1213;43.206;27.922;2024-02-21T04:18:10;28.07;;;17.97;;
2404;SDS011;1213;43.206;27.922;2024-02-21T04:20:35;26.40;;;18.20;;
2404;SDS011;1213;43.206;27.922;2024-02-21T04:23:01;31.50;;;17.60;;
2404;SDS011;1213;43.206;27.922;2024-02-21T04:25:26;27.53;;;17.77;;
2404;SDS011;1213;43.206;27.922;2024-02-21T04:27:52;28.17;;;17.70;;
2404;SDS011;1213;43.206;27.922;2024-02-21T04:30:19;37.20;;;18.87;;
2404;SDS011;1213;43.206;27.922;2024-02-21T04:32:45;34.17;;;17.03;;
2404;SDS011;1213;43.206;27.922;2024-02-21T04:35:10;25.57;;;16.30;;
2404;SDS011;1213;43.206;27.922;2024-02-21T04:37:36;26.13;;;15.23;;
2404;SDS011;1213;43.206;27.922;2024-02-21T04:40:01;31.67;;;15.70;;
2404;SDS011;1213;43.206;27.922;2024-02-21T04:42:27;23.83;;;14.83;;
2404;SDS011;1213;43.206;27.922;2024-02-21T04:44:54;28.57;;;15.73;;
2404;SDS011;1213;43.206;27.922;2024-02-21T04:47:19;30.40;;;16.90;;
2404;SDS011;1213;43.206;27.922;2024-02-21T04:49:45;25.10;;;14.27;;
2404;SDS011;1213;43.206;27.922;2024-02-21T04:52:11;29.07;;;18.63;;
2404;SDS011;1213;43.206;27.922;2024-02-21T04:54:36;35.93;;;20.40;;
2404;SDS011;1213;43.206;27.922;2024-02-21T04:57:02;44.93;;;23.37;;
2404;SDS011;1213;43.206;27.922;2024-02-21T04:59:27;35.23;;;22.17;;
2404;SDS011;1213;43.206;27.922;2024-02-21T05:01:53;30.73;;;19.00;;
2404;SDS011;1213;43.206;27.922;2024-02-21T05:04:18;37.10;;;21.40;;
2404;SDS011;1213;43.206;27.922;2024-02-21T05:06:44;37.90;;;23.33;;
2404;SDS011;1213;43.206;27.922;2024-02-21T05:09:09;38.90;;;21.47;;
2404;SDS011;1213;43.206;27.922;2024-02-21T05:11:35;45.87;;;24.97;;
2404;SDS011;1213;43.206;27.922;2024-02-21T05:14:01;40.10;;;24.87;;
2404;SDS011;1213;43.206;27.922;2024-02-21T05:16:28;44.20;;;26.70;;
2404;SDS011;1213;43.206;27.922;2024-02-21T05:18:54;41.10;;;23.50;;
2404;SDS011;1213;43.206;27.922;2024-02-21T05:21:21;42.77;;;24.27;;
2404;SDS011;1213;43.206;27.922;2024-02-21T05:23:48;39.30;;;22.50;;
2404;SDS011;1213;43.206;27.922;2024-02-21T05:26:19;43.83;;;27.13;;
2404;SDS011;1213;43.206;27.922;2024-02-21T05:28:46;45.33;;;26.93;;
2404;SDS011;1213;43.206;27.922;2024-02-21T05:31:12;51.13;;;33.53;;
2404;SDS011;1213;43.206;27.922;2024-02-21T05:33:37;66.60;;;36.30;;
2404;SDS011;1213;43.206;27.922;2024-02-21T05:36:02;75.90;;;46.90;;
2404;SDS011;1213;43.206;27.922;2024-02-21T05:38:28;81.17;;;48.70;;
2404;SDS011;1213;43.206;27.922;2024-02-21T05:40:53;60.47;;;37.60;;
2404;SDS011;1213;43.206;27.922;2024-02-21T05:43:19;53.10;;;34.37;;
2404;SDS011;1213;43.206;27.922;2024-02-21T05:45:46;60.20;;;37.20;;
2404;SDS011;1213;43.206;27.922;2024-02-21T05:48:11;75.43;;;41.67;;
2404;SDS011;1213;43.206;27.922;2024-02-21T05:50:37;54.90;;;35.10;;
2404;SDS011;1213;43.206;27.922;2024-02-21T05:53:02;56.37;;;32.40;;
2404;SDS011;1213;43.206;27.922;2024-02-21T05:55:28;57.20;;;34.23;;
2404;SDS011;1213;43.206;27.922;2024-02-21T05:57:53;60.17;;;38.17;;
2404;SDS011;1213;43.206;27.922;2024-02-21T06:00:20;62.37;;;39.17;;
2404;SDS011;1213;43.206;27.922;2024-02-21T06:02:45;69.10;;;39.63;;
2404;SDS011;1213;43.206;27.922;2024-02-21T06:05:11;68.03;;;41.23;;
2404;SDS011;1213;43.206;27.922;2024-02-21T06:07:36;57.57;;;35.50;;
2404;SDS011;1213;43.206;27.922;2024-02-21T06:10:03;60.90;;;38.90;;
2404;SDS011;1213;43.206;27.922;2024-02-21T06:12:29;65.67;;;36.50;;
2404;SDS011;1213;43.206;27.922;2024-02-21T06:14:54;45.87;;;28.43;;
2404;SDS011;1213;43.206;27.922;2024-02-21T06:17:19;48.80;;;30.37;;
2404;SDS011;1213;43.206;27.922;2024-02-21T06:19:45;41.17;;;27.73;;
2404;SDS011;1213;43.206;27.922;2024-02-21T06:22:11;41.47;;;25.87;;
2404;SDS011;1213;43.206;27.922;2024-02-21T06:24:36;53.10;;;30.37;;
2404;SDS011;1213;43.206;27.922;2024-02-21T06:27:05;64.70;;;39.10;;
2404;SDS011;1213;43.206;27.922;2024-02-21T06:29:31;88.50;;;45.63;;
2404;SDS011;1213;43.206;27.922;2024-02-21T06:31:58;91.00;;;41.10;;
2404;SDS011;1213;43.206;27.922;2024-02-21T06:34:23;68.63;;;39.50;;
2404;SDS011;1213;43.206;27.922;2024-02-21T06:36:49;64.10;;;38.47;;
2404;SDS011;1213;43.206;27.922;2024-02-21T06:39:15;58.97;;;34.90;;
2404;SDS011;1213;43.206;27.922;2024-02-21T06:41:41;64.30;;;37.87;;
2404;SDS011;1213;43.206;27.922;2024-02-21T06:44:06;69.77;;;41.30;;
2404;SDS011;1213;43.206;27.922;2024-02-21T06:46:32;65.03;;;38.63;;
2404;SDS011;1213;43.206;27.922;2024-02-21T06:48:58;75.87;;;37.73;;
2404;SDS011;1213;43.206;27.922;2024-02-21T06:51:25;63.63;;;35.00;;
2404;SDS011;1213;43.206;27.922;2024-02-21T06:53:51;68.57;;;41.40;;
2404;SDS011;1213;43.206;27.922;2024-02-21T06:56:16;62.27;;;36.70;;
2404;SDS011;1213;43.206;27.922;2024-02-21T06:58:41;85.93;;;51.97;;
2404;SDS011;1213;43.206;27.922;2024-02-21T07:01:07;88.47;;;52.87;;
2404;SDS011;1213;43.206;27.922;2024-02-21T07:03:35;65.03;;;38.83;;
2404;SDS011;1213;43.206;27.922;2024-02-21T07:06:00;100.17;;;58.47;;
2404;SDS011;1213;43.206;27.922;2024-02-21T07:08:26;82.23;;;51.63;;
2404;SDS011;1213;43.206;27.922;2024-02-21T07:10:51;81.47;;;45.80;;
2404;SDS011;1213;43.206;27.922;2024-02-21T07:13:17;89.00;;;52.60;;
2404;SDS011;1213;43.206;27.922;2024-02-21T07:15:42;74.03;;;48.00;;
2404;SDS011;1213;43.206;27.922;2024-02-21T07:18:08;74.13;;;44.90;;
2404;SDS011;1213;43.206;27.922;2024-02-21T07:20:34;70.60;;;42.97;;
2404;SDS011;1213;43.206;27.922;2024-02-21T07:23:01;78.47;;;44.63;;
2404;SDS011;1213;43.206;27.922;2024-02-21T07:25:27;60.97;;;36.43;;
2404;SDS011;1213;43.206;27.922;2024-02-21T07:27:52;100.87;;;38.70;;
2404;SDS011;1213;43.206;27.922;2024-02-21T07:30:18;24.30;;;16.77;;
2404;SDS011;1213;43.206;27.922;2024-02-21T07:32:44;60.20;;;31.03;;
2404;SDS011;1213;43.206;27.922;2024-02-21T07:35:09;108.13;;;41.13;;
2404;SDS011;1213;43.206;27.922;2024-02-21T07:37:38;61.40;;;35.93;;
2404;SDS011;1213;43.206;27.922;2024-02-21T07:40:05;66.60;;;39.67;;
2404;SDS011;1213;43.206;27.922;2024-02-21T07:42:31;54.80;;;33.70;;
2404;SDS011;1213;43.206;27.922;2024-02-21T07:44:56;59.13;;;39.03;;
2404;SDS011;1213;43.206;27.922;2024-02-21T07:47:22;70.40;;;42.67;;
2404;SDS011;1213;43.206;27.922;2024-02-21T07:49:47;68.10;;;37.30;;
2404;SDS011;1213;43.206;27.922;2024-02-21T07:52:13;67.60;;;41.13;;
2404;SDS011;1213;43.206;27.922;2024-02-21T07:54:39;61.20;;;40.93;;
2404;SDS011;1213;43.206;27.922;2024-02-21T07:57:06;63.33;;;40.07;;
2404;SDS011;1213;43.206;27.922;2024-02-21T07:59:32;34.70;;;22.80;;
2404;SDS011;1213;43.206;27.922;2024-02-21T08:01:58;38.53;;;25.40;;
2404;SDS011;1213;43.206;27.922;2024-02-21T08:04:24;59.13;;;33.23;;
2404;SDS011;1213;43.206;27.922;2024-02-21T08:06:53;57.77;;;33.70;;
2404;SDS011;1213;43.206;27.922;2024-02-21T08:09:20;56.43;;;34.50;;
2404;SDS011;1213;43.206;27.922;2024-02-21T08:11:49;52.33;;;35.80;;
2404;SDS011;1213;43.206;27.922;2024-02-21T08:14:14;71.93;;;41.67;;
2404;SDS011;1213;43.206;27.922;2024-02-21T08:16:41;71.70;;;41.40;;
2404;SDS011;1213;43.206;27.922;2024-02-21T08:19:07;70.47;;;45.00;;
2404;SDS011;1213;43.206;27.922;2024-02-21T08:21:32;56.33;;;33.67;;
2404;SDS011;1213;43.206;27.922;2024-02-21T08:23:57;58.27;;;37.00;;
2404;SDS011;1213;43.206;27.922;2024-02-21T08:26:23;69.57;;;35.07;;
2404;SDS011;1213;43.206;27.922;2024-02-21T08:28:50;44.60;;;27.07;;
2404;SDS011;1213;43.206;27.922;2024-02-21T08:31:19;53.87;;;34.77;;
2404;SDS011;1213;43.206;27.922;2024-02-21T08:33:45;54.87;;;33.97;;
2404;SDS011;1213;43.206;27.922;2024-02-21T08:36:19;61.90;;;40.20;;
2404;SDS011;1213;43.206;27.922;2024-02-21T08:38:48;41.07;;;27.67;;
2404;SDS011;1213;43.206;27.922;2024-02-21T08:41:13;51.10;;;31.53;;
2404;SDS011;1213;43.206;27.922;2024-02-21T08:43:39;50.80;;;30.60;;
2404;SDS011;1213;43.206;27.922;2024-02-21T08:46:07;30.53;;;18.90;;
2404;SDS011;1213;43.206;27.922;2024-02-21T08:48:32;42.70;;;27.87;;
2404;SDS011;1213;43.206;27.922;2024-02-21T08:50:58;52.07;;;29.50;;
2404;SDS011;1213;43.206;27.922;2024-02-21T08:53:24;27.13;;;17.60;;
2404;SDS011;1213;43.206;27.922;2024-02-21T08:55:49;37.17;;;25.13;;
2404;SDS011;1213;43.206;27.922;2024-02-21T08:58:15;38.20;;;26.00;;
2404;SDS011;1213;43.206;27.922;2024-02-21T09:00:40;39.03;;;27.57;;
2404;SDS011;1213;43.206;27.922;2024-02-21T09:03:06;32.70;;;23.90;;
2404;SDS011;1213;43.206;27.922;2024-02-21T09:05:31;26.83;;;19.03;;
2404;SDS011;1213;43.206;27.922;2024-02-21T09:07:56;31.93;;;20.17;;
2404;SDS011;1213;43.206;27.922;2024-02-21T09:10:22;28.67;;;21.13;;
2404;SDS011;1213;43.206;27.922;2024-02-21T09:12:47;33.50;;;22.37;;
2404;SDS011;1213;43.206;27.922;2024-02-21T09:15:13;40.23;;;26.67;;
2404;SDS011;1213;43.206;27.922;2024-02-21T09:17:38;40.23;;;28.30;;
2404;SDS011;1213;43.206;27.922;2024-02-21T09:20:04;41.83;;;25.43;;
2404;SDS011;1213;43.206;27.922;2024-02-21T09:22:31;34.77;;;23.53;;
2404;SDS011;1213;43.206;27.922;2024-02-21T09:24:59;40.23;;;23.40;;
2404;SDS011;1213;43.206;27.922;2024-02-21T09:27:25;34.47;;;23.10;;
2404;SDS011;1213;43.206;27.922;2024-02-21T09:29:50;40.30;;;24.47;;
2404;SDS011;1213;43.206;27.922;2024-02-21T09:32:20;24.30;;;17.67;;
2404;SDS011;1213;43.206;27.922;2024-02-21T09:34:45;28.73;;;17.67;;
2404;SDS011;1213;43.206;27.922;2024-02-21T09:37:11;26.77;;;16.67;;
2404;SDS011;1213;43.206;27.922;2024-02-21T09:39:36;25.70;;;16.97;;
2404;SDS011;1213;43.206;27.922;2024-02-21T09:42:05;28.13;;;16.90;;
2404;SDS011;1213;43.206;27.922;2024-02-21T09:44:38;20.00;;;14.37;;
2404;SDS011;1213;43.206;27.922;2024-02-21T09:47:10;22.73;;;16.10;;
2404;SDS011;1213;43.206;27.922;2024-02-21T09:49:42;18.97;;;12.30;;
2404;SDS011;1213;43.206;27.922;2024-02-21T09:52:09;20.73;;;14.03;;
2404;SDS011;1213;43.206;27.922;2024-02-21T09:54:38;19.10;;;12.30;;
2404;SDS011;1213;43.206;27.922;2024-02-21T09:57:06;17.30;;;13.07;;
2404;SDS011;1213;43.206;27.922;2024-02-21T09:59:33;19.50;;;13.67;;
2404;SDS011;1213;43.206;27.922;2024-02-21T10:01:59;18.83;;;12.97;;
2404;SDS011;1213;43.206;27.922;2024-02-21T10:04:27;17.90;;;11.80;;
2404;SDS011;1213;43.206;27.922;2024-02-21T10:06:53;20.23;;;11.70;;
2404;SDS011;1213;43.206;27.922;2024-02-21T10:09:28;19.60;;;14.10;;
2404;SDS011;1213;43.206;27.922;2024-02-21T10:11:55;19.50;;;12.70;;
2404;SDS011;1213;43.206;27.922;2024-02-21T10:14:21;31.80;;;13.90;;
2404;SDS011;1213;43.206;27.922;2024-02-21T10:16:56;20.87;;;13.53;;
2404;SDS011;1213;43.206;27.922;2024-02-21T10:19:25;22.00;;;14.17;;
2404;SDS011;1213;43.206;27.922;2024-02-21T10:22:06;20.13;;;13.87;;
2404;SDS011;1213;43.206;27.922;2024-02-21T10:24:35;27.17;;;16.43;;
2404;SDS011;1213;43.206;27.922;2024-02-21T10:27:03;27.73;;;19.20;;
2404;SDS011;1213;43.206;27.922;2024-02-21T10:29:33;26.73;;;20.30;;
2404;SDS011;1213;43.206;27.922;2024-02-21T10:32:12;25.07;;;19.37;;
2404;SDS011;1213;43.206;27.922;2024-02-21T10:34:39;28.77;;;20.03;;
2404;SDS011;1213;43.206;27.922;2024-02-21T10:37:07;26.43;;;19.63;;
2404;SDS011;1213;43.206;27.922;2024-02-21T10:39:42;33.10;;;20.57;;
2404;SDS011;1213;43.206;27.922;2024-02-21T10:42:12;28.57;;;20.10;;
2404;SDS011;1213;43.206;27.922;2024-02-21T10:44:39;34.37;;;21.00;;
2404;SDS011;1213;43.206;27.922;2024-02-21T10:47:09;31.93;;;20.80;;
2404;SDS011;1213;43.206;27.922;2024-02-21T10:49:39;30.30;;;21.80;;
2404;SDS011;1213;43.206;27.922;2024-02-21T10:55:08;30.73;;;21.23;;
2404;SDS011;1213;43.206;27.922;2024-02-21T10:57:40;33.43;;;21.60;;
2404;SDS011;1213;43.206;27.922;2024-02-21T11:00:07;26.77;;;19.83;;
2404;SDS011;1213;43.206;27.922;2024-02-21T11:02:37;28.77;;;19.53;;
2404;SDS011;1213;43.206;27.922;2024-02-21T11:05:05;25.37;;;20.40;;
2404;SDS011;1213;43.206;27.922;2024-02-21T11:07:31;26.90;;;18.73;;
2404;SDS011;1213;43.206;27.922;2024-02-21T11:09:57;27.70;;;19.67;;
2404;SDS011;1213;43.206;27.922;2024-02-21T11:12:24;29.00;;;19.27;;
2404;SDS011;1213;43.206;27.922;2024-02-21T11:15:06;25.87;;;19.70;;
2404;SDS011;1213;43.206;27.922;2024-02-21T11:17:38;32.03;;;20.87;;
2404;SDS011;1213;43.206;27.922;2024-02-21T11:20:10;37.67;;;23.07;;
2404;SDS011;1213;43.206;27.922;2024-02-21T11:22:42;25.30;;;19.70;;
2404;SDS011;1213;43.206;27.922;2024-02-21T11:25:08;34.67;;;23.50;;
2404;SDS011;1213;43.206;27.922;2024-02-21T11:27:36;40.10;;;24.83;;
2404;SDS011;1213;43.206;27.922;2024-02-21T11:30:04;35.70;;;22.90;;
2404;SDS011;1213;43.206;27.922;2024-02-21T11:32:30;32.63;;;22.83;;
2404;SDS011;1213;43.206;27.922;2024-02-21T11:35:02;32.60;;;20.97;;
2404;SDS011;1213;43.206;27.922;2024-02-21T11:37:30;26.07;;;18.20;;
2404;SDS011;1213;43.206;27.922;2024-02-21T11:40:02;26.70;;;17.93;;
2404;SDS011;1213;43.206;27.922;2024-02-21T11:42:28;29.50;;;19.60;;
2404;SDS011;1213;43.206;27.922;2024-02-21T11:44:55;28.87;;;19.63;;
2404;SDS011;1213;43.206;27.922;2024-02-21T11:47:24;24.47;;;17.57;;
2404;SDS011;1213;43.206;27.922;2024-02-21T11:49:50;25.50;;;17.57;;
2404;SDS011;1213;43.206;27.922;2024-02-21T11:52:19;29.37;;;18.47;;
2404;SDS011;1213;43.206;27.922;2024-02-21T11:54:47;24.87;;;17.63;;
2404;SDS011;1213;43.206;27.922;2024-02-21T11:57:13;26.00;;;17.97;;
2404;SDS011;1213;43.206;27.922;2024-02-21T11:59:57;27.73;;;18.17;;
2404;SDS011;1213;43.206;27.922;2024-02-21T12:02:23;28.03;;;16.10;;
2404;SDS011;1213;43.206;27.922;2024-02-21T12:04:48;26.37;;;17.57;;
2404;SDS011;1213;43.206;27.922;2024-02-21T12:07:14;23.73;;;18.37;;
2404;SDS011;1213;43.206;27.922;2024-02-21T12:09:41;28.70;;;18.57;;
2404;SDS011;1213;43.206;27.922;2024-02-21T12:12:08;20.63;;;16.30;;
2404;SDS011;1213;43.206;27.922;2024-02-21T12:14:34;22.93;;;18.07;;
2404;SDS011;1213;43.206;27.922;2024-02-21T12:17:02;24.43;;;17.90;;
2404;SDS011;1213;43.206;27.922;2024-02-21T12:19:31;24.97;;;18.63;;
2404;SDS011;1213;43.206;27.922;2024-02-21T12:21:58;31.30;;;18.70;;
2404;SDS011;1213;43.206;27.922;2024-02-21T12:24:25;24.07;;;17.50;;
2404;SDS011;1213;43.206;27.922;2024-02-21T12:26:52;29.03;;;19.87;;
2404;SDS011;1213;43.206;27.922;2024-02-21T12:29:19;25.50;;;17.17;;
2404;SDS011;1213;43.206;27.922;2024-02-21T12:31:44;26.33;;;18.67;;
2404;SDS011;1213;43.206;27.922;2024-02-21T12:34:10;23.77;;;17.93;;
2404;SDS011;1213;43.206;27.922;2024-02-21T12:36:36;24.40;;;17.97;;
2404;SDS011;1213;43.206;27.922;2024-02-21T12:39:07;28.70;;;17.60;;
2404;SDS011;1213;43.206;27.922;2024-02-21T12:41:33;29.27;;;18.73;;
2404;SDS011;1213;43.206;27.922;2024-02-21T12:44:00;28.40;;;18.87;;
2404;SDS011;1213;43.206;27.922;2024-02-21T12:46:26;26.27;;;19.33;;
2404;SDS011;1213;43.206;27.922;2024-02-21T12:48:51;25.50;;;18.83;;
2404;SDS011;1213;43.206;27.922;2024-02-21T12:51:16;23.07;;;17.50;;
2404;SDS011;1213;43.206;27.922;2024-02-21T12:53:46;29.47;;;18.70;;
2404;SDS011;1213;43.206;27.922;2024-02-21T12:56:15;26.10;;;18.00;;
2404;SDS011;1213;43.206;27.922;2024-02-21T12:58:40;24.90;;;18.70;;
2404;SDS011;1213;43.206;27.922;2024-02-21T13:01:06;20.40;;;14.87;;
2404;SDS011;1213;43.206;27.922;2024-02-21T13:03:31;26.50;;;17.17;;
2404;SDS011;1213;43.206;27.922;2024-02-21T13:05:57;22.43;;;15.10;;
2404;SDS011;1213;43.206;27.922;2024-02-21T13:08:24;25.10;;;16.37;;
2404;SDS011;1213;43.206;27.922;2024-02-21T13:10:50;20.90;;;14.37;;
2404;SDS011;1213;43.206;27.922;2024-02-21T13:13:15;24.00;;;13.97;;
2404;SDS011;1213;43.206;27.922;2024-02-21T13:15:41;19.37;;;13.67;;
2404;SDS011;1213;43.206;27.922;2024-02-21T13:18:08;22.23;;;15.27;;
2404;SDS011;1213;43.206;27.922;2024-02-21T13:20:34;25.33;;;13.33;;
2404;SDS011;1213;43.206;27.922;2024-02-21T13:22:59;19.90;;;13.93;;
2404;SDS011;1213;43.206;27.922;2024-02-21T13:25:24;18.93;;;12.27;;
2404;SDS011;1213;43.206;27.922;2024-02-21T13:27:50;22.30;;;13.87;;
2404;SDS011;1213;43.206;27.922;2024-02-21T13:30:16;19.73;;;12.20;;
2404;SDS011;1213;43.206;27.922;2024-02-21T13:32:42;17.80;;;13.23;;
2404;SDS011;1213;43.206;27.922;2024-02-21T13:35:08;18.83;;;12.83;;
2404;SDS011;1213;43.206;27.922;2024-02-21T13:37:36;19.37;;;13.13;;
2404;SDS011;1213;43.206;27.922;2024-02-21T13:40:02;24.13;;;14.93;;
2404;SDS011;1213;43.206;27.922;2024-02-21T13:42:29;17.90;;;12.10;;
2404;SDS011;1213;43.206;27.922;2024-02-21T13:44:55;21.20;;;11.97;;
2404;SDS011;1213;43.206;27.922;2024-02-21T13:47:20;17.20;;;12.20;;
2404;SDS011;1213;43.206;27.922;2024-02-21T13:49:46;19.33;;;13.27;;
2404;SDS011;1213;43.206;27.922;2024-02-21T13:52:12;22.27;;;13.03;;
2404;SDS011;1213;43.206;27.922;2024-02-21T13:54:38;20.63;;;13.07;;
2404;SDS011;1213;43.206;27.922;2024-02-21T13:57:03;23.63;;;12.60;;
2404;SDS011;1213;43.206;27.922;2024-02-21T13:59:29;18.63;;;12.33;;
2404;SDS011;1213;43.206;27.922;2024-02-21T14:01:55;21.97;;;12.53;;
2404;SDS011;1213;43.206;27.922;2024-02-21T14:04:21;16.67;;;11.53;;
2404;SDS011;1213;43.206;27.922;2024-02-21T14:06:46;19.93;;;12.40;;
2404;SDS011;1213;43.206;27.922;2024-02-21T14:09:12;17.23;;;12.73;;
2404;SDS011;1213;43.206;27.922;2024-02-21T14:11:41;18.17;;;12.83;;
2404;SDS011;1213;43.206;27.922;2024-02-21T14:14:14;17.83;;;11.93;;
2404;SDS011;1213;43.206;27.922;2024-02-21T14:16:40;19.50;;;12.30;;
2404;SDS011;1213;43.206;27.922;2024-02-21T14:19:06;18.00;;;12.57;;
2404;SDS011;1213;43.206;27.922;2024-02-21T14:21:33;15.90;;;11.10;;
2404;SDS011;1213;43.206;27.922;2024-02-21T14:23:59;16.50;;;11.93;;
2404;SDS011;1213;43.206;27.922;2024-02-21T14:26:27;19.10;;;12.50;;
2404;SDS011;1213;43.206;27.922;2024-02-21T14:28:53;21.47;;;12.47;;
2404;SDS011;1213;43.206;27.922;2024-02-21T14:31:18;18.80;;;13.23;;
2404;SDS011;1213;43.206;27.922;2024-02-21T14:33:44;18.53;;;13.10;;
2404;SDS011;1213;43.206;27.922;2024-02-21T14:36:11;17.20;;;11.07;;